createdAt,value
2022-10-08T00:01:49.140Z,10.65
2022-10-08T00:04:15.600Z,11.75
2022-10-08T00:06:42.090Z,12.32
2022-10-08T00:09:08.462Z,12.27
2022-10-08T00:11:38.318Z,11.65
2022-10-08T00:14:06.050Z,11.20
2022-10-08T00:16:38.575Z,12.07
2022-10-08T00:19:10.350Z,11.38
2022-10-08T00:21:39.344Z,10.82
2022-10-08T00:24:07.987Z,10.93
2022-10-08T00:26:41.131Z,12.50
2022-10-08T00:29:13.302Z,12.20
2022-10-08T00:31:41.533Z,13.00
2022-10-08T00:34:11.249Z,11.95
2022-10-08T00:36:39.396Z,12.18
2022-10-08T00:39:16.103Z,12.43
2022-10-08T00:41:45.531Z,12.95
2022-10-08T00:44:49.636Z,12.95
2022-10-08T00:47:20.236Z,12.88
2022-10-08T00:49:50.774Z,12.00
2022-10-08T00:52:19.003Z,12.38
2022-10-08T00:54:46.084Z,11.90
2022-10-08T00:57:12.660Z,11.40
2022-10-08T00:59:39.236Z,11.32
2022-10-08T01:02:06.067Z,11.85
2022-10-08T01:04:32.683Z,12.38
2022-10-08T01:07:11.979Z,11.32
2022-10-08T01:09:45.633Z,12.20
2022-10-08T01:12:25.425Z,11.45
2022-10-08T01:14:57.611Z,12.27
2022-10-08T01:17:39.609Z,12.52
2022-10-08T01:20:27.766Z,14.10
2022-10-08T01:23:27.883Z,13.35
2022-10-08T01:25:54.547Z,12.57
2022-10-08T01:28:30.976Z,10.75
2022-10-08T01:31:09.546Z,11.30
2022-10-08T01:33:39.798Z,11.50
2022-10-08T01:36:08.064Z,10.98
2022-10-08T01:38:40.004Z,10.40
2022-10-08T01:41:09.715Z,10.38
2022-10-08T01:43:39.829Z,10.63
2022-10-08T01:46:14.482Z,10.45
2022-10-08T01:48:44.515Z,9.90
2022-10-08T01:51:16.942Z,11.05
2022-10-08T01:53:46.288Z,10.27
2022-10-08T01:56:18.304Z,10.90
2022-10-08T01:58:54.936Z,11.18
2022-10-08T02:01:37.462Z,11.07
2022-10-08T02:04:04.726Z,11.02
2022-10-08T02:06:35.799Z,10.73
2022-10-08T02:09:02.154Z,11.45
2022-10-08T02:11:28.567Z,11.18
2022-10-08T02:13:55.402Z,11.18
2022-10-08T02:16:29.173Z,11.90
2022-10-08T02:19:08.295Z,11.77
2022-10-08T02:21:39.741Z,11.95
2022-10-08T02:24:15.617Z,11.70
2022-10-08T02:26:48.043Z,10.85
2022-10-08T02:29:28.450Z,12.43
2022-10-08T02:32:00.259Z,12.48
2022-10-08T02:34:32.094Z,10.95
2022-10-08T02:37:10.877Z,11.25
2022-10-08T02:39:41.868Z,11.52
2022-10-08T02:42:12.584Z,11.48
2022-10-08T02:44:46.010Z,11.88
2022-10-08T02:47:17.933Z,11.45
2022-10-08T02:49:53.276Z,12.10
2022-10-08T02:52:22.533Z,10.18
2022-10-08T02:54:51.706Z,11.32
2022-10-08T02:57:32.358Z,12.23
2022-10-08T02:59:59.485Z,12.63
2022-10-08T03:02:34.721Z,11.20
2022-10-08T03:05:05.939Z,11.77
2022-10-08T03:07:33.828Z,11.80
2022-10-08T03:10:05.127Z,12.57
2022-10-08T03:12:32.319Z,13.02
2022-10-08T03:14:59.039Z,11.82
2022-10-08T03:17:31.451Z,12.82
2022-10-08T03:19:57.916Z,13.02
2022-10-08T03:22:25.058Z,11.95
2022-10-08T03:24:56.031Z,13.68
2022-10-08T03:27:23.249Z,12.77
2022-10-08T03:29:49.557Z,13.07
2022-10-08T03:32:16.000Z,13.30
2022-10-08T03:34:42.428Z,12.75
2022-10-08T03:37:08.776Z,13.30
2022-10-08T03:39:35.137Z,14.45
2022-10-08T03:42:01.503Z,12.57
2022-10-08T03:44:27.846Z,12.82
2022-10-08T03:46:54.205Z,13.00
2022-10-08T03:49:20.666Z,14.38
2022-10-08T03:51:47.072Z,13.45
2022-10-08T03:54:13.521Z,14.15
2022-10-08T03:56:40.245Z,13.10
2022-10-08T03:59:06.696Z,13.75
2022-10-08T04:01:33.116Z,14.05
2022-10-08T04:03:59.885Z,13.82
2022-10-08T04:06:26.240Z,13.75
2022-10-08T04:08:52.789Z,13.00
2022-10-08T04:11:19.733Z,14.65
2022-10-08T04:13:46.231Z,13.68
2022-10-08T04:16:18.028Z,13.23
2022-10-08T04:18:44.620Z,12.25
2022-10-08T04:21:14.028Z,12.10
2022-10-08T04:23:42.085Z,11.90
2022-10-08T04:26:10.104Z,12.77
2022-10-08T04:28:38.983Z,12.32
2022-10-08T04:31:11.394Z,12.20
2022-10-08T04:33:38.407Z,12.38
2022-10-08T04:36:31.058Z,11.77
2022-10-08T04:38:57.403Z,13.57
2022-10-08T04:41:26.209Z,14.00
2022-10-08T04:43:53.927Z,13.55
2022-10-08T04:46:22.113Z,12.73
2022-10-08T04:48:51.213Z,12.43
2022-10-08T04:51:19.379Z,13.50
2022-10-08T04:53:46.129Z,14.13
2022-10-08T04:56:17.099Z,13.25
2022-10-08T04:58:44.630Z,13.40
2022-10-08T05:01:13.591Z,13.60
2022-10-08T05:03:42.913Z,14.48
2022-10-08T05:06:10.692Z,13.65
2022-10-08T05:08:37.615Z,12.55
2022-10-08T05:11:04.756Z,11.80
2022-10-08T05:13:31.615Z,13.40
2022-10-08T05:16:06.213Z,12.70
2022-10-08T05:18:33.656Z,11.90
2022-10-08T05:21:10.969Z,12.98
2022-10-08T05:23:38.343Z,13.48
2022-10-08T05:26:19.183Z,13.65
2022-10-08T05:31:14.161Z,12.80
2022-10-08T05:33:40.720Z,13.43
2022-10-08T05:36:09.235Z,13.55
2022-10-08T05:38:36.168Z,12.85
2022-10-08T05:41:31.057Z,14.85
2022-10-08T05:43:58.714Z,15.05
2022-10-08T05:46:27.615Z,14.07
2022-10-08T05:48:59.032Z,14.75
2022-10-08T05:51:25.796Z,14.48
2022-10-08T05:53:53.901Z,13.80
2022-10-08T05:56:22.535Z,15.98
2022-10-08T05:58:49.934Z,15.70
2022-10-08T06:01:22.256Z,16.45
2022-10-08T06:03:50.410Z,15.50
2022-10-08T06:06:17.319Z,15.60
2022-10-08T06:08:43.848Z,15.30
2022-10-08T06:11:10.260Z,15.18
2022-10-08T06:13:36.602Z,14.27
2022-10-08T06:16:05.939Z,15.35
2022-10-08T06:18:35.366Z,15.00
2022-10-08T06:21:08.209Z,14.95
2022-10-08T06:23:34.959Z,14.30
2022-10-08T06:26:05.889Z,14.77
2022-10-08T06:28:33.855Z,15.60
2022-10-08T06:31:00.547Z,14.13
2022-10-08T06:33:27.299Z,14.27
2022-10-08T06:35:54.340Z,15.50
2022-10-08T06:38:21.662Z,13.63
2022-10-08T06:40:48.039Z,14.60
2022-10-08T06:43:17.101Z,14.80
2022-10-08T06:45:45.728Z,15.10
2022-10-08T06:48:13.651Z,14.70
2022-10-08T06:50:40.559Z,13.40
2022-10-08T06:53:09.398Z,14.07
2022-10-08T06:55:36.333Z,15.10
2022-10-08T06:58:03.794Z,16.40
2022-10-08T07:00:30.251Z,15.77
2022-10-08T07:02:57.424Z,16.58
2022-10-08T07:05:24.238Z,16.50
2022-10-08T07:07:50.663Z,16.00
2022-10-08T07:10:18.599Z,14.93
2022-10-08T07:12:45.729Z,15.23
2022-10-08T07:15:12.321Z,14.43
2022-10-08T07:17:38.823Z,13.20
2022-10-08T07:20:06.007Z,14.30
2022-10-08T07:22:32.410Z,13.90
2022-10-08T07:24:58.811Z,14.07
2022-10-08T07:27:25.453Z,14.10
2022-10-08T07:29:51.823Z,15.07
2022-10-08T07:32:18.232Z,15.05
2022-10-08T07:34:44.950Z,13.93
2022-10-08T07:37:11.523Z,14.77
2022-10-08T07:39:38.193Z,14.93
2022-10-08T07:42:06.425Z,14.48
2022-10-08T07:44:32.967Z,14.30
2022-10-08T07:46:59.666Z,13.73
2022-10-08T07:49:26.223Z,11.57
2022-10-08T07:51:52.581Z,11.60
2022-10-08T07:54:19.867Z,11.98
2022-10-08T07:56:46.353Z,12.05
2022-10-08T07:59:12.973Z,11.77
2022-10-08T08:01:39.598Z,11.68
2022-10-08T08:04:07.851Z,9.73
2022-10-08T08:06:39.956Z,13.10
2022-10-08T08:09:06.366Z,10.65
2022-10-08T08:11:32.921Z,9.27
2022-10-08T08:13:59.240Z,8.55
2022-10-08T08:16:27.674Z,8.02
2022-10-08T08:18:56.710Z,6.50
2022-10-08T08:21:28.219Z,4.72
2022-10-08T08:23:56.818Z,4.80
2022-10-08T08:26:36.058Z,4.25
2022-10-08T08:29:07.172Z,3.42
2022-10-08T08:31:37.296Z,4.45
2022-10-08T08:34:10.454Z,4.70
2022-10-08T08:36:39.376Z,4.43
2022-10-08T08:39:08.467Z,4.10
2022-10-08T08:42:12.482Z,3.90
2022-10-08T08:44:43.820Z,4.60
2022-10-08T08:47:17.200Z,3.53
2022-10-08T08:49:55.194Z,4.95
2022-10-08T08:52:28.495Z,4.28
2022-10-08T08:54:55.228Z,4.55
2022-10-08T08:57:46.559Z,3.53
2022-10-08T09:00:20.820Z,4.85
2022-10-08T09:02:56.262Z,4.68
2022-10-08T09:05:25.539Z,4.65
2022-10-08T09:07:59.360Z,4.57
2022-10-08T09:10:36.648Z,4.40
2022-10-08T09:13:03.565Z,5.05
2022-10-08T09:15:37.829Z,4.30
2022-10-08T09:18:14.993Z,4.68
2022-10-08T09:20:42.649Z,4.22
2022-10-08T09:23:16.041Z,3.83
2022-10-08T09:25:44.117Z,3.58
2022-10-08T09:28:28.136Z,3.65
2022-10-08T09:31:10.947Z,3.67
2022-10-08T09:33:42.142Z,3.28
2022-10-08T09:36:12.578Z,3.40
2022-10-08T09:38:40.333Z,3.50
2022-10-08T09:41:16.972Z,3.03
2022-10-08T09:43:43.887Z,3.25
2022-10-08T09:46:29.173Z,3.08
2022-10-08T09:48:55.827Z,4.05
2022-10-08T09:51:23.369Z,3.58
2022-10-08T09:53:58.639Z,3.40
2022-10-08T09:56:28.148Z,3.35
2022-10-08T09:59:01.840Z,3.25
2022-10-08T10:01:29.123Z,3.83
2022-10-08T10:04:05.674Z,3.17
2022-10-08T10:06:35.377Z,3.63
2022-10-08T10:09:26.688Z,3.03
2022-10-08T10:12:14.118Z,3.25
2022-10-08T10:14:51.043Z,2.90
2022-10-08T10:17:31.197Z,4.15
2022-10-08T10:20:04.895Z,3.78
2022-10-08T10:23:19.421Z,3.33
2022-10-08T10:25:57.630Z,3.83
2022-10-08T10:28:47.504Z,3.17
2022-10-08T10:31:19.701Z,3.13
2022-10-08T10:34:03.783Z,3.72
2022-10-08T10:36:34.951Z,3.00
2022-10-08T10:39:15.840Z,3.15
2022-10-08T10:41:52.796Z,3.63
2022-10-08T10:44:29.025Z,3.03
2022-10-08T10:46:58.814Z,3.80
2022-10-08T10:49:34.962Z,3.10
2022-10-08T10:52:26.427Z,3.47
2022-10-08T10:55:11.423Z,3.35
2022-10-08T10:58:04.095Z,2.95
2022-10-08T11:00:43.055Z,3.92
2022-10-08T11:03:21.254Z,2.75
2022-10-08T11:05:55.130Z,2.92
2022-10-08T11:08:42.438Z,3.00
2022-10-08T11:11:28.541Z,2.85
2022-10-08T11:14:28.486Z,3.05
2022-10-08T11:17:21.296Z,3.45
2022-10-08T11:20:16.745Z,3.42
2022-10-08T11:22:55.038Z,3.33
2022-10-08T11:26:02.120Z,3.47
2022-10-08T11:28:34.076Z,3.92
2022-10-08T11:31:33.771Z,2.90
2022-10-08T11:34:02.010Z,3.03
2022-10-08T11:36:37.172Z,3.10
2022-10-08T11:39:19.704Z,3.22
2022-10-08T11:42:01.570Z,2.83
2022-10-08T11:44:30.951Z,2.58
2022-10-08T11:47:36.708Z,3.10
2022-10-08T11:50:05.464Z,2.60
2022-10-08T11:52:34.342Z,2.50
2022-10-08T11:55:07.466Z,2.65
2022-10-08T11:57:55.881Z,2.50
2022-10-08T12:00:26.809Z,2.40
2022-10-08T12:02:58.145Z,3.83
2022-10-08T12:05:48.015Z,2.63
2022-10-08T12:08:59.053Z,3.22
2022-10-08T12:11:34.341Z,2.65
2022-10-08T12:14:15.258Z,2.72
2022-10-08T12:16:47.544Z,2.60
2022-10-08T12:19:32.704Z,2.33
2022-10-08T12:22:14.860Z,2.97
2022-10-08T12:24:44.786Z,2.55
2022-10-08T12:27:19.234Z,2.35
2022-10-08T12:30:06.581Z,2.60
2022-10-08T12:32:52.407Z,3.08
2022-10-08T12:35:29.218Z,2.53
2022-10-08T12:38:08.825Z,2.60
2022-10-08T12:40:57.744Z,2.30
2022-10-08T12:43:58.252Z,2.65
2022-10-08T12:46:48.101Z,2.20
2022-10-08T12:49:35.385Z,2.60
2022-10-08T12:52:11.703Z,2.33
2022-10-08T12:54:57.573Z,2.22
2022-10-08T12:57:34.959Z,2.88
2022-10-08T13:00:26.847Z,2.25
2022-10-08T13:03:12.615Z,2.78
2022-10-08T13:05:40.813Z,2.33
2022-10-08T13:08:26.276Z,3.03
2022-10-08T13:10:52.747Z,2.80
2022-10-08T13:13:39.098Z,2.53
2022-10-08T13:16:16.534Z,3.28
2022-10-08T13:18:47.426Z,2.95
2022-10-08T13:21:31.549Z,3.13
2022-10-08T13:24:03.017Z,2.15
2022-10-08T13:26:54.919Z,2.55
2022-10-08T13:29:21.392Z,1.85
2022-10-08T13:31:58.971Z,2.00
2022-10-08T13:34:42.788Z,1.83
2022-10-08T13:37:25.648Z,1.90
2022-10-08T13:39:57.550Z,2.58
2022-10-08T13:42:28.759Z,1.52
2022-10-08T13:44:58.136Z,2.30
2022-10-08T13:47:24.518Z,2.20
2022-10-08T13:49:50.929Z,2.00
2022-10-08T13:52:23.765Z,2.05
2022-10-08T13:54:56.708Z,2.10
2022-10-08T13:57:23.485Z,1.70
2022-10-08T13:59:50.020Z,2.50
2022-10-08T14:02:16.610Z,1.75
2022-10-08T14:04:43.206Z,2.20
2022-10-08T14:07:21.818Z,2.28
2022-10-08T14:09:49.722Z,1.40
2022-10-08T14:12:18.067Z,1.15
2022-10-08T14:14:45.336Z,1.88
2022-10-08T14:17:11.833Z,1.90
2022-10-08T14:19:38.289Z,2.03
2022-10-08T14:22:06.198Z,1.42
2022-10-08T14:24:36.542Z,1.50
2022-10-08T14:27:08.211Z,1.42
2022-10-08T14:29:35.149Z,1.23
2022-10-08T14:32:03.339Z,1.90
2022-10-08T14:34:30.135Z,2.15
2022-10-08T14:36:56.518Z,2.47
2022-10-08T14:39:27.285Z,1.42
2022-10-08T14:41:53.850Z,1.88
2022-10-08T14:44:21.875Z,1.27
2022-10-08T14:46:49.602Z,1.95
2022-10-08T14:49:18.957Z,1.33
2022-10-08T14:51:46.531Z,1.65
2022-10-08T14:54:13.153Z,1.35
2022-10-08T14:56:47.013Z,1.77
2022-10-08T14:59:13.991Z,1.73
2022-10-08T15:01:40.397Z,2.00
2022-10-08T15:04:07.379Z,1.42
2022-10-08T15:06:35.690Z,1.90
2022-10-08T15:09:03.159Z,1.80
2022-10-08T15:11:29.477Z,1.52
2022-10-08T15:13:56.027Z,1.60
2022-10-08T15:16:22.668Z,1.42
2022-10-08T15:18:49.038Z,1.30
2022-10-08T15:21:15.410Z,1.52
2022-10-08T15:23:42.081Z,1.52
2022-10-08T15:26:12.852Z,2.78
2022-10-08T15:28:39.515Z,1.80
2022-10-08T15:31:08.238Z,1.23
2022-10-08T15:33:39.387Z,1.23
2022-10-08T15:36:31.566Z,0.90
2022-10-08T15:39:11.897Z,1.20
2022-10-08T15:41:40.992Z,1.20
2022-10-08T15:44:19.423Z,0.77
2022-10-08T15:46:50.888Z,1.20
2022-10-08T15:49:17.342Z,0.65
2022-10-08T15:51:45.644Z,1.10
2022-10-08T15:54:12.188Z,0.90
2022-10-08T15:56:41.199Z,0.80
2022-10-08T15:59:07.577Z,0.93
2022-10-08T16:01:34.028Z,1.27
2022-10-08T16:04:01.653Z,1.02
2022-10-08T16:06:33.323Z,0.80
2022-10-08T16:09:00.339Z,0.70
2022-10-08T16:11:29.743Z,1.23
2022-10-08T16:14:02.096Z,1.02
2022-10-08T16:16:30.449Z,1.00
2022-10-08T16:19:00.476Z,1.20
2022-10-08T16:21:29.024Z,1.00
2022-10-08T16:23:56.943Z,1.60
2022-10-08T16:26:23.899Z,1.38
2022-10-08T16:28:56.559Z,0.93
2022-10-08T16:31:25.561Z,1.25
2022-10-08T16:34:00.226Z,1.20
2022-10-08T16:36:27.918Z,1.27
2022-10-08T16:38:55.551Z,0.88
2022-10-08T16:41:32.442Z,1.10
2022-10-08T16:44:03.287Z,1.20
2022-10-08T16:46:32.154Z,1.85
2022-10-08T16:49:24.508Z,1.63
2022-10-08T16:52:01.586Z,1.25
2022-10-08T16:54:31.291Z,1.20
2022-10-08T16:56:58.186Z,1.30
2022-10-08T16:59:26.197Z,1.70
2022-10-08T17:01:55.020Z,1.70
2022-10-08T17:04:23.087Z,1.42
2022-10-08T17:06:51.052Z,1.95
2022-10-08T17:09:19.212Z,1.67
2022-10-08T17:11:46.161Z,1.50
2022-10-08T17:14:12.905Z,1.58
2022-10-08T17:16:41.973Z,1.35
2022-10-08T17:19:09.046Z,1.60
2022-10-08T17:21:37.016Z,1.85
2022-10-08T17:24:03.540Z,2.40
2022-10-08T17:26:31.723Z,1.80
2022-10-08T17:29:04.951Z,1.80
2022-10-08T17:31:31.621Z,1.40
2022-10-08T17:33:59.454Z,2.03
2022-10-08T17:36:29.321Z,1.88
2022-10-08T17:38:58.558Z,1.90
2022-10-08T17:41:27.282Z,1.90
2022-10-08T17:43:58.520Z,2.03
2022-10-08T17:46:29.687Z,3.92
2022-10-08T17:48:56.678Z,2.38
2022-10-08T17:51:25.634Z,1.77
2022-10-08T17:53:54.117Z,2.25
2022-10-08T17:56:20.993Z,3.13
2022-10-08T17:58:48.510Z,4.03
2022-10-08T18:01:18.869Z,10.27
2022-10-08T18:03:51.876Z,3.58
2022-10-08T18:06:18.927Z,2.88
2022-10-08T18:08:46.226Z,6.78
2022-10-08T18:11:15.599Z,6.30
2022-10-08T18:13:42.006Z,13.63
2022-10-08T18:16:12.204Z,13.23
2022-10-08T18:18:39.006Z,8.93
2022-10-08T18:21:06.653Z,4.47
2022-10-08T18:23:35.279Z,3.67
2022-10-08T18:26:19.173Z,3.53
2022-10-08T18:28:53.094Z,3.15
2022-10-08T18:31:23.189Z,3.13
2022-10-08T18:33:52.089Z,3.55
2022-10-08T18:36:20.868Z,4.30
2022-10-08T18:38:49.132Z,4.00
2022-10-08T18:41:23.065Z,3.72
2022-10-08T18:43:49.873Z,3.88
2022-10-08T18:46:19.143Z,4.00
2022-10-08T18:48:45.999Z,4.38
2022-10-08T18:51:18.953Z,4.60
2022-10-08T18:53:46.765Z,4.38
2022-10-08T18:56:19.189Z,4.13
2022-10-08T18:58:45.634Z,4.03
2022-10-08T19:01:21.166Z,4.15
2022-10-08T19:03:50.283Z,4.03
2022-10-08T19:06:20.088Z,4.05
2022-10-08T19:08:47.363Z,4.50
2022-10-08T19:11:20.169Z,5.00
2022-10-08T19:13:48.056Z,4.10
2022-10-08T19:16:15.487Z,5.25
2022-10-08T19:19:02.210Z,4.20
2022-10-08T19:21:29.668Z,3.78
2022-10-08T19:23:57.206Z,3.83
2022-10-08T19:26:24.543Z,4.50
2022-10-08T19:28:54.017Z,4.25
2022-10-08T19:31:23.350Z,3.75
2022-10-08T19:33:55.100Z,3.63
2022-10-08T19:36:23.574Z,4.13
2022-10-08T19:38:56.795Z,4.80
2022-10-08T19:41:24.114Z,5.72
2022-10-08T19:43:51.739Z,4.47
2022-10-08T19:46:18.924Z,4.30
2022-10-08T19:48:54.069Z,4.13
2022-10-08T19:51:22.551Z,4.10
2022-10-08T19:53:54.238Z,4.88
2022-10-08T19:56:23.653Z,4.25
2022-10-08T19:58:53.659Z,4.45
2022-10-08T20:01:26.002Z,4.88
2022-10-08T20:03:54.661Z,5.05
2022-10-08T20:06:24.587Z,5.60
2022-10-08T20:08:56.325Z,5.43
2022-10-08T20:11:23.069Z,5.57
2022-10-08T20:13:51.552Z,5.85
2022-10-08T20:16:21.047Z,6.28
2022-10-08T20:18:48.789Z,8.68
2022-10-08T20:21:15.207Z,5.40
2022-10-08T20:23:41.686Z,6.20
2022-10-08T20:26:15.171Z,6.32
2022-10-08T20:28:42.768Z,5.45
2022-10-08T20:31:15.212Z,5.93
2022-10-08T20:33:42.893Z,6.25
2022-10-08T20:36:17.670Z,6.40
2022-10-08T20:38:45.859Z,7.00
2022-10-08T20:41:13.712Z,7.30
2022-10-08T20:43:40.408Z,6.55
2022-10-08T20:46:10.143Z,6.60
2022-10-08T20:48:39.233Z,8.13
2022-10-08T20:51:09.002Z,7.75
2022-10-08T20:53:37.573Z,8.35
2022-10-08T20:56:10.958Z,6.82
2022-10-08T20:58:38.326Z,7.85
2022-10-08T21:01:08.097Z,6.93
2022-10-08T21:03:37.675Z,8.20
2022-10-08T21:06:07.082Z,7.28
2022-10-08T21:08:38.762Z,7.13
2022-10-08T21:11:07.120Z,7.78
2022-10-08T21:13:34.879Z,6.55
2022-10-08T21:16:29.255Z,5.35
2022-10-08T21:19:01.285Z,4.93
2022-10-08T21:21:31.123Z,4.28
2022-10-08T21:23:58.603Z,5.13
2022-10-08T21:26:30.450Z,4.38
2022-10-08T21:29:00.051Z,4.30
2022-10-08T21:31:31.013Z,4.30
2022-10-08T21:33:59.504Z,4.18
2022-10-08T21:36:32.285Z,3.58
2022-10-08T21:39:00.502Z,4.38
2022-10-08T21:41:32.337Z,4.93
2022-10-08T21:44:01.324Z,4.65
2022-10-08T21:46:31.310Z,4.63
2022-10-08T21:49:19.127Z,4.68
2022-10-08T21:51:46.095Z,4.90
2022-10-08T21:54:14.419Z,4.20
2022-10-08T21:56:42.813Z,4.30
2022-10-08T21:59:14.949Z,4.13
2022-10-08T22:01:47.500Z,4.63
2022-10-08T22:04:20.470Z,4.47
2022-10-08T22:06:54.282Z,4.47
2022-10-08T22:09:24.145Z,4.20
2022-10-08T22:11:51.887Z,4.97
2022-10-08T22:14:19.029Z,4.78
2022-10-08T22:16:45.826Z,4.30
2022-10-08T22:19:15.255Z,5.57
2022-10-08T22:21:44.041Z,4.50
2022-10-08T22:24:11.395Z,4.22
2022-10-08T22:26:43.817Z,4.40
2022-10-08T22:29:10.668Z,5.70
2022-10-08T22:31:40.538Z,4.45
2022-10-08T22:34:08.457Z,4.10
2022-10-08T22:36:39.199Z,4.63
2022-10-08T22:39:06.064Z,4.00
2022-10-08T22:41:34.605Z,4.60
2022-10-08T22:44:01.831Z,4.28
2022-10-08T22:46:32.423Z,4.15
2022-10-08T22:49:01.502Z,4.72
2022-10-08T22:51:29.938Z,4.35
2022-10-08T22:53:56.551Z,4.15
2022-10-08T22:56:27.540Z,4.68
2022-10-08T22:58:54.336Z,4.22
2022-10-08T23:01:23.297Z,4.00
2022-10-08T23:03:51.645Z,4.30
2022-10-08T23:06:43.480Z,4.93
2022-10-08T23:09:11.925Z,4.97
2022-10-08T23:11:38.807Z,5.30
2022-10-08T23:14:06.740Z,4.82
2022-10-08T23:16:34.260Z,5.10
2022-10-08T23:19:05.108Z,5.10
2022-10-08T23:21:32.422Z,6.47
2022-10-08T23:24:03.372Z,6.15
2022-10-08T23:28:59.727Z,4.55
2022-10-08T23:31:32.013Z,5.65
2022-10-08T23:33:59.915Z,5.82
2022-10-08T23:36:29.553Z,5.75
2022-10-08T23:38:57.690Z,5.78
2022-10-08T23:41:24.987Z,5.00
2022-10-08T23:43:52.793Z,6.05
2022-10-08T23:46:26.958Z,5.03
2022-10-08T23:48:55.175Z,4.75
2022-10-08T23:51:22.789Z,4.93
2022-10-08T23:53:51.328Z,5.60
2022-10-08T23:56:18.488Z,4.60
2022-10-08T23:58:45.111Z,5.10
